ASA61 PAYA-PACV
Flight info
| Callsign | ASA61 |
|---|---|
| Flight time | 0h 39m |
| Altitude | 30000 |
| Route | YAK OCC FORAT |
| Aircraft | B737/M-SDE2E3FGHIRWXY/LB1 |
Departure
| Time | 2026-04-14 19:29 |
|---|---|
| Airport | Yakutat Airport (PAYA) |
Arrival
| Time | 2026-04-14 20:09 |
|---|---|
| Airport | Merle K (Mudhole) Smith Airport (PACV) |
| Time | Latitude | Longitude | Altitude | Speed | Heading |
|---|---|---|---|---|---|
| 2026-04-14 18:29 | 59.50797 | -139.66728 | 48 ft | 0 kts | 330° |
| 2026-04-14 19:17 | 59.50790 | -139.66720 | 45 ft | 3 kts | 332° |
| 2026-04-14 19:17 | 59.50772 | -139.66702 | 48 ft | 3 kts | 332° |
| 2026-04-14 19:17 | 59.50759 | -139.66690 | 47 ft | 3 kts | 26° |
| 2026-04-14 19:18 | 59.50746 | -139.66709 | 46 ft | 1 kts | 45° |
| 2026-04-14 19:18 | 59.50738 | -139.66726 | 47 ft | 1 kts | 45° |
| 2026-04-14 19:18 | 59.50737 | -139.66726 | 44 ft | 0 kts | 45° |
| 2026-04-14 19:24 | 59.50740 | -139.66721 | 46 ft | 2 kts | 45° |
| 2026-04-14 19:24 | 59.50779 | -139.66653 | 44 ft | 13 kts | 41° |
| 2026-04-14 19:24 | 59.50858 | -139.66504 | 48 ft | 17 kts | 46° |
| 2026-04-14 19:24 | 59.50936 | -139.66344 | 46 ft | 16 kts | 46° |
| 2026-04-14 19:25 | 59.50993 | -139.66176 | 46 ft | 15 kts | 98° |
| 2026-04-14 19:25 | 59.50922 | -139.66024 | 44 ft | 19 kts | 137° |
| 2026-04-14 19:25 | 59.50810 | -139.65810 | 46 ft | 23 kts | 135° |
| 2026-04-14 19:25 | 59.50701 | -139.65595 | 45 ft | 22 kts | 135° |
| 2026-04-14 19:26 | 59.50594 | -139.65387 | 44 ft | 21 kts | 135° |
| 2026-04-14 19:26 | 59.50491 | -139.65183 | 44 ft | 21 kts | 135° |
| 2026-04-14 19:26 | 59.50392 | -139.64989 | 43 ft | 20 kts | 135° |
| 2026-04-14 19:26 | 59.50295 | -139.64798 | 43 ft | 19 kts | 135° |
| 2026-04-14 19:27 | 59.50201 | -139.64613 | 45 ft | 19 kts | 135° |
| 2026-04-14 19:27 | 59.50108 | -139.64431 | 41 ft | 20 kts | 135° |
| 2026-04-14 19:27 | 59.50007 | -139.64231 | 40 ft | 21 kts | 135° |
| 2026-04-14 19:27 | 59.49904 | -139.64028 | 41 ft | 21 kts | 135° |
| 2026-04-14 19:28 | 59.49804 | -139.63831 | 45 ft | 20 kts | 135° |
| 2026-04-14 19:28 | 59.49723 | -139.63626 | 43 ft | 16 kts | 129° |
| 2026-04-14 19:28 | 59.49686 | -139.63583 | 43 ft | 2 kts | 250° |
| 2026-04-14 19:28 | 59.49691 | -139.63610 | 43 ft | 2 kts | 300° |
| 2026-04-14 19:29 | 59.49754 | -139.63733 | 43 ft | 43 kts | 315° |
| 2026-04-14 19:29 | 59.50187 | -139.64586 | 47 ft | 129 kts | 313° |
| 2026-04-14 19:29 | 59.50950 | -139.66107 | 377 ft | 169 kts | 315° |
| 2026-04-14 19:29 | 59.51815 | -139.67799 | 1389 ft | 178 kts | 316° |
| 2026-04-14 19:30 | 59.52725 | -139.69558 | 2244 ft | 197 kts | 317° |
| 2026-04-14 19:30 | 59.53783 | -139.71560 | 2799 ft | 221 kts | 316° |
| 2026-04-14 19:30 | 59.54650 | -139.74129 | 3678 ft | 233 kts | 293° |
| 2026-04-14 19:30 | 59.55238 | -139.77317 | 4388 ft | 257 kts | 289° |
| 2026-04-14 19:31 | 59.55793 | -139.80723 | 5498 ft | 264 kts | 288° |
| 2026-04-14 19:31 | 59.56346 | -139.84192 | 6715 ft | 266 kts | 289° |
| 2026-04-14 19:31 | 59.56906 | -139.87710 | 7825 ft | 272 kts | 288° |
| 2026-04-14 19:31 | 59.57480 | -139.91301 | 8928 ft | 277 kts | 289° |
| 2026-04-14 19:32 | 59.58067 | -139.94954 | 10020 ft | 282 kts | 289° |
| 2026-04-14 19:32 | 59.58626 | -139.98427 | 10750 ft | 296 kts | 289° |
| 2026-04-14 19:32 | 59.59276 | -140.02452 | 11343 ft | 315 kts | 289° |
| 2026-04-14 19:32 | 59.59946 | -140.06605 | 12325 ft | 320 kts | 289° |
| 2026-04-14 19:33 | 59.60624 | -140.10815 | 13449 ft | 323 kts | 289° |
| 2026-04-14 19:33 | 59.61308 | -140.15065 | 14487 ft | 327 kts | 289° |
| 2026-04-14 19:33 | 59.62003 | -140.19381 | 15481 ft | 332 kts | 290° |
| 2026-04-14 19:33 | 59.62708 | -140.23775 | 16498 ft | 338 kts | 290° |
| 2026-04-14 19:34 | 59.64147 | -140.32753 | 18441 ft | 349 kts | 291° |
| 2026-04-14 19:34 | 59.64875 | -140.37315 | 19247 ft | 356 kts | 291° |
| 2026-04-14 19:34 | 59.65626 | -140.42026 | 20016 ft | 363 kts | 292° |
| 2026-04-14 19:35 | 59.66383 | -140.46799 | 21027 ft | 363 kts | 292° |
| 2026-04-14 19:35 | 59.67134 | -140.51557 | 22163 ft | 361 kts | 293° |
| 2026-04-14 19:35 | 59.67881 | -140.56302 | 23240 ft | 362 kts | 293° |
| 2026-04-14 19:35 | 59.68629 | -140.61062 | 24128 ft | 362 kts | 293° |
| 2026-04-14 19:36 | 59.69370 | -140.65795 | 25144 ft | 357 kts | 293° |
| 2026-04-14 19:36 | 59.70107 | -140.70518 | 26214 ft | 352 kts | 293° |
| 2026-04-14 19:36 | 59.70823 | -140.75119 | 27175 ft | 350 kts | 293° |
| 2026-04-14 19:36 | 59.71547 | -140.79759 | 27640 ft | 352 kts | 293° |
| 2026-04-14 19:37 | 59.72258 | -140.84328 | 27778 ft | 353 kts | 293° |
| 2026-04-14 19:37 | 59.72986 | -140.89026 | 27776 ft | 351 kts | 293° |
| 2026-04-14 19:37 | 59.73689 | -140.93580 | 27778 ft | 350 kts | 293° |
| 2026-04-14 19:37 | 59.74398 | -140.98179 | 27783 ft | 349 kts | 293° |
| 2026-04-14 19:38 | 59.75105 | -141.02784 | 27781 ft | 348 kts | 293° |
| 2026-04-14 19:38 | 59.75803 | -141.07372 | 27752 ft | 347 kts | 292° |
| 2026-04-14 19:38 | 59.76500 | -141.11940 | 27777 ft | 346 kts | 292° |
| 2026-04-14 19:38 | 59.77197 | -141.16504 | 27780 ft | 345 kts | 292° |
| 2026-04-14 19:39 | 59.77891 | -141.21061 | 27784 ft | 345 kts | 292° |
| 2026-04-14 19:39 | 59.78584 | -141.25623 | 27784 ft | 345 kts | 292° |
| 2026-04-14 19:39 | 59.79275 | -141.30189 | 27781 ft | 345 kts | 292° |
| 2026-04-14 19:39 | 59.79965 | -141.34757 | 27784 ft | 345 kts | 292° |
| 2026-04-14 19:40 | 59.80653 | -141.39332 | 27776 ft | 346 kts | 292° |
| 2026-04-14 19:40 | 59.81339 | -141.43909 | 27784 ft | 346 kts | 292° |
| 2026-04-14 19:40 | 59.82025 | -141.48494 | 27778 ft | 346 kts | 291° |
| 2026-04-14 19:40 | 59.82708 | -141.53076 | 27780 ft | 346 kts | 291° |
| 2026-04-14 19:41 | 59.83391 | -141.57667 | 27782 ft | 347 kts | 291° |
| 2026-04-14 19:41 | 59.84074 | -141.62270 | 27779 ft | 347 kts | 291° |
| 2026-04-14 19:41 | 59.84755 | -141.66879 | 27781 ft | 347 kts | 291° |
| 2026-04-14 19:41 | 59.85433 | -141.71482 | 27748 ft | 347 kts | 290° |
| 2026-04-14 19:42 | 59.86108 | -141.76093 | 27776 ft | 346 kts | 290° |
| 2026-04-14 19:42 | 59.86784 | -141.80698 | 27774 ft | 347 kts | 290° |
| 2026-04-14 19:42 | 59.87459 | -141.85306 | 27779 ft | 347 kts | 290° |
| 2026-04-14 19:42 | 59.88130 | -141.89903 | 27782 ft | 347 kts | 290° |
| 2026-04-14 19:43 | 59.88802 | -141.94520 | 27782 ft | 347 kts | 290° |
| 2026-04-14 19:43 | 59.89472 | -141.99140 | 27779 ft | 347 kts | 290° |
| 2026-04-14 19:43 | 59.90140 | -142.03757 | 27781 ft | 347 kts | 290° |
| 2026-04-14 19:43 | 59.90807 | -142.08381 | 27780 ft | 347 kts | 290° |
| 2026-04-14 19:44 | 59.91471 | -142.12997 | 27778 ft | 347 kts | 290° |
| 2026-04-14 19:44 | 59.92134 | -142.17622 | 27777 ft | 347 kts | 290° |
| 2026-04-14 19:44 | 59.92796 | -142.22254 | 27778 ft | 347 kts | 290° |
| 2026-04-14 19:44 | 59.93233 | -142.25314 | 27778 ft | 347 kts | 290° |
| 2026-04-14 19:45 | 59.93891 | -142.29939 | 27777 ft | 347 kts | 290° |
| 2026-04-14 19:45 | 59.94548 | -142.34569 | 27779 ft | 347 kts | 290° |
| 2026-04-14 19:45 | 59.95202 | -142.39197 | 27769 ft | 346 kts | 289° |
| 2026-04-14 19:45 | 59.95853 | -142.43811 | 27773 ft | 345 kts | 289° |
| 2026-04-14 19:46 | 59.96500 | -142.48417 | 27773 ft | 344 kts | 289° |
| 2026-04-14 19:46 | 59.97146 | -142.53016 | 27772 ft | 344 kts | 289° |
| 2026-04-14 19:46 | 59.97788 | -142.57610 | 27772 ft | 343 kts | 289° |
| 2026-04-14 19:46 | 59.98428 | -142.62197 | 27778 ft | 343 kts | 289° |
| 2026-04-14 19:47 | 59.99065 | -142.66779 | 27776 ft | 342 kts | 289° |
| 2026-04-14 19:47 | 59.99701 | -142.71362 | 27778 ft | 342 kts | 289° |
| 2026-04-14 19:47 | 60.00337 | -142.75957 | 27538 ft | 346 kts | 289° |
| 2026-04-14 19:47 | 60.00974 | -142.80577 | 27171 ft | 345 kts | 289° |
| 2026-04-14 19:48 | 60.01611 | -142.85208 | 26726 ft | 344 kts | 289° |
| 2026-04-14 19:48 | 60.02244 | -142.89830 | 26199 ft | 344 kts | 289° |
| 2026-04-14 19:48 | 60.02873 | -142.94433 | 25705 ft | 344 kts | 289° |
| 2026-04-14 19:48 | 60.03502 | -142.99047 | 25190 ft | 344 kts | 289° |
| 2026-04-14 19:49 | 60.04126 | -143.03644 | 24768 ft | 341 kts | 288° |
| 2026-04-14 19:49 | 60.04741 | -143.08196 | 24358 ft | 338 kts | 288° |
| 2026-04-14 19:49 | 60.05352 | -143.12717 | 23945 ft | 335 kts | 288° |
| 2026-04-14 19:49 | 60.05958 | -143.17215 | 23532 ft | 333 kts | 288° |
| 2026-04-14 19:50 | 60.06558 | -143.21684 | 23055 ft | 332 kts | 288° |
| 2026-04-14 19:50 | 60.07153 | -143.26125 | 22580 ft | 329 kts | 288° |
| 2026-04-14 19:50 | 60.07739 | -143.30521 | 22173 ft | 325 kts | 288° |
| 2026-04-14 19:50 | 60.08319 | -143.34878 | 21761 ft | 322 kts | 288° |
| 2026-04-14 19:51 | 60.08886 | -143.39142 | 21349 ft | 319 kts | 288° |
| 2026-04-14 19:51 | 60.09452 | -143.43417 | 20936 ft | 317 kts | 288° |
| 2026-04-14 19:51 | 60.10013 | -143.47665 | 20520 ft | 314 kts | 288° |
| 2026-04-14 19:51 | 60.10568 | -143.51881 | 20110 ft | 312 kts | 288° |
| 2026-04-14 19:52 | 60.11119 | -143.56077 | 19707 ft | 310 kts | 288° |
| 2026-04-14 19:52 | 60.11666 | -143.60247 | 19302 ft | 308 kts | 288° |
| 2026-04-14 19:52 | 60.12207 | -143.64391 | 18901 ft | 306 kts | 288° |
| 2026-04-14 19:52 | 60.12744 | -143.68510 | 18505 ft | 305 kts | 288° |
| 2026-04-14 19:53 | 60.13278 | -143.72620 | 18107 ft | 303 kts | 288° |
| 2026-04-14 19:53 | 60.13808 | -143.76708 | 17652 ft | 302 kts | 288° |
| 2026-04-14 19:53 | 60.14333 | -143.80773 | 17233 ft | 300 kts | 288° |
| 2026-04-14 19:53 | 60.14853 | -143.84809 | 16830 ft | 297 kts | 288° |
| 2026-04-14 19:54 | 60.15367 | -143.88808 | 16456 ft | 294 kts | 287° |
| 2026-04-14 19:54 | 60.16363 | -143.96592 | 15842 ft | 284 kts | 287° |
| 2026-04-14 19:54 | 60.16854 | -144.00428 | 15451 ft | 283 kts | 287° |
| 2026-04-14 19:55 | 60.17341 | -144.04249 | 15067 ft | 282 kts | 287° |
| 2026-04-14 19:55 | 60.17820 | -144.08027 | 14691 ft | 280 kts | 287° |
| 2026-04-14 19:55 | 60.18299 | -144.11813 | 14313 ft | 279 kts | 287° |
| 2026-04-14 19:55 | 60.18832 | -144.15560 | 13929 ft | 277 kts | 293° |
| 2026-04-14 19:56 | 60.19606 | -144.19094 | 13521 ft | 276 kts | 298° |
| 2026-04-14 19:56 | 60.20451 | -144.22547 | 13082 ft | 275 kts | 298° |
| 2026-04-14 19:56 | 60.21298 | -144.25983 | 12676 ft | 274 kts | 298° |
| 2026-04-14 19:56 | 60.22132 | -144.29404 | 12296 ft | 271 kts | 298° |
| 2026-04-14 19:57 | 60.22952 | -144.32815 | 11911 ft | 270 kts | 297° |
| 2026-04-14 19:57 | 60.23763 | -144.36209 | 11541 ft | 269 kts | 297° |
| 2026-04-14 19:57 | 60.24570 | -144.39607 | 11156 ft | 268 kts | 297° |
| 2026-04-14 19:57 | 60.25370 | -144.42999 | 10774 ft | 268 kts | 297° |
| 2026-04-14 19:58 | 60.26166 | -144.46391 | 10395 ft | 267 kts | 297° |
| 2026-04-14 19:58 | 60.26947 | -144.49726 | 10068 ft | 265 kts | 296° |
| 2026-04-14 19:58 | 60.27726 | -144.53065 | 9830 ft | 258 kts | 297° |
| 2026-04-14 19:58 | 60.28465 | -144.56225 | 9495 ft | 247 kts | 296° |
| 2026-04-14 19:59 | 60.29181 | -144.59318 | 9148 ft | 240 kts | 297° |
| 2026-04-14 19:59 | 60.29886 | -144.62353 | 8807 ft | 240 kts | 296° |
| 2026-04-14 19:59 | 60.30596 | -144.65418 | 8463 ft | 243 kts | 297° |
| 2026-04-14 19:59 | 60.31313 | -144.68523 | 8122 ft | 245 kts | 296° |
| 2026-04-14 20:00 | 60.32034 | -144.71652 | 7787 ft | 247 kts | 297° |
| 2026-04-14 20:00 | 60.32756 | -144.74763 | 7432 ft | 242 kts | 296° |
| 2026-04-14 20:00 | 60.33465 | -144.77820 | 7107 ft | 238 kts | 298° |
| 2026-04-14 20:00 | 60.34257 | -144.80741 | 6763 ft | 237 kts | 302° |
| 2026-04-14 20:01 | 60.35079 | -144.83621 | 6459 ft | 237 kts | 299° |
| 2026-04-14 20:01 | 60.35820 | -144.86601 | 6129 ft | 237 kts | 296° |
| 2026-04-14 20:01 | 60.36506 | -144.89632 | 5796 ft | 237 kts | 295° |
| 2026-04-14 20:01 | 60.37170 | -144.92665 | 5488 ft | 236 kts | 295° |
| 2026-04-14 20:02 | 60.37826 | -144.95683 | 5177 ft | 233 kts | 297° |
| 2026-04-14 20:02 | 60.38462 | -144.98620 | 4884 ft | 223 kts | 297° |
| 2026-04-14 20:02 | 60.39068 | -145.01416 | 4610 ft | 212 kts | 297° |
| 2026-04-14 20:02 | 60.39651 | -145.04092 | 4317 ft | 204 kts | 297° |
| 2026-04-14 20:03 | 60.40209 | -145.06653 | 4086 ft | 195 kts | 297° |
| 2026-04-14 20:03 | 60.40747 | -145.09116 | 4039 ft | 188 kts | 297° |
| 2026-04-14 20:03 | 60.41276 | -145.11534 | 3796 ft | 183 kts | 297° |
| 2026-04-14 20:03 | 60.41764 | -145.13774 | 3572 ft | 165 kts | 298° |
| 2026-04-14 20:04 | 60.42196 | -145.15762 | 3395 ft | 143 kts | 299° |
| 2026-04-14 20:04 | 60.42576 | -145.17491 | 3173 ft | 128 kts | 298° |
| 2026-04-14 20:04 | 60.42925 | -145.19089 | 3022 ft | 124 kts | 301° |
| 2026-04-14 20:04 | 60.43283 | -145.20707 | 2848 ft | 127 kts | 300° |
| 2026-04-14 20:05 | 60.43636 | -145.22313 | 2671 ft | 124 kts | 298° |
| 2026-04-14 20:05 | 60.43999 | -145.23953 | 2439 ft | 126 kts | 298° |
| 2026-04-14 20:05 | 60.44345 | -145.25552 | 2285 ft | 125 kts | 300° |
| 2026-04-14 20:05 | 60.44714 | -145.27143 | 2072 ft | 125 kts | 298° |
| 2026-04-14 20:06 | 60.45053 | -145.28755 | 1902 ft | 125 kts | 298° |
| 2026-04-14 20:06 | 60.45403 | -145.30361 | 1703 ft | 124 kts | 296° |
| 2026-04-14 20:06 | 60.45744 | -145.31993 | 1537 ft | 127 kts | 296° |
| 2026-04-14 20:06 | 60.46115 | -145.33619 | 1365 ft | 127 kts | 296° |
| 2026-04-14 20:07 | 60.46476 | -145.35229 | 1193 ft | 124 kts | 296° |
| 2026-04-14 20:07 | 60.46829 | -145.36828 | 1049 ft | 125 kts | 296° |
| 2026-04-14 20:07 | 60.47180 | -145.38422 | 862 ft | 123 kts | 296° |
| 2026-04-14 20:07 | 60.47529 | -145.39997 | 722 ft | 124 kts | 296° |
| 2026-04-14 20:08 | 60.47878 | -145.41582 | 556 ft | 122 kts | 295° |
| 2026-04-14 20:08 | 60.48224 | -145.43149 | 395 ft | 121 kts | 294° |
| 2026-04-14 20:08 | 60.48572 | -145.44719 | 229 ft | 122 kts | 293° |
| 2026-04-14 20:08 | 60.48920 | -145.46292 | 70 ft | 122 kts | 293° |
| 2026-04-14 20:09 | 60.49221 | -145.47651 | 53 ft | 85 kts | 294° |
| 2026-04-14 20:09 | 60.49400 | -145.48464 | 48 ft | 41 kts | 294° |
| 2026-04-14 20:09 | 60.49497 | -145.48913 | 52 ft | 33 kts | 294° |
| 2026-04-14 20:09 | 60.49583 | -145.49309 | 54 ft | 27 kts | 294° |
| 2026-04-14 20:10 | 60.49602 | -145.49589 | 54 ft | 17 kts | 250° |
| 2026-04-14 20:10 | 60.49651 | -145.49592 | 52 ft | 16 kts | 96° |
| 2026-04-14 20:10 | 60.49629 | -145.49380 | 51 ft | 15 kts | 107° |
| 2026-04-14 20:10 | 60.49582 | -145.49191 | 54 ft | 16 kts | 117° |
| 2026-04-14 20:11 | 60.49533 | -145.48996 | 54 ft | 15 kts | 117° |
| 2026-04-14 20:11 | 60.49487 | -145.48807 | 52 ft | 15 kts | 116° |
| 2026-04-14 20:11 | 60.49443 | -145.48627 | 49 ft | 14 kts | 116° |
| 2026-04-14 20:11 | 60.49404 | -145.48451 | 49 ft | 13 kts | 114° |
| 2026-04-14 20:12 | 60.49359 | -145.48251 | 46 ft | 18 kts | 114° |
| 2026-04-14 20:12 | 60.49307 | -145.48018 | 53 ft | 18 kts | 114° |
| 2026-04-14 20:12 | 60.49257 | -145.47795 | 53 ft | 17 kts | 114° |
| 2026-04-14 20:12 | 60.49229 | -145.47584 | 52 ft | 16 kts | 65° |
| 2026-04-14 20:13 | 60.49295 | -145.47497 | 52 ft | 10 kts | 26° |
| 2026-04-14 20:13 | 60.49351 | -145.47442 | 52 ft | 8 kts | 25° |
| 2026-04-14 20:13 | 60.49377 | -145.47417 | 51 ft | 0 kts | 26° |
| 2026-04-14 20:13 | 60.49385 | -145.47409 | 48 ft | 4 kts | 26° |
| 2026-04-14 20:14 | 60.49418 | -145.47377 | 52 ft | 5 kts | 25° |
| 2026-04-14 20:14 | 60.49437 | -145.47329 | 53 ft | 5 kts | 89° |
| 2026-04-14 20:14 | 60.49421 | -145.47271 | 47 ft | 3 kts | 123° |
| 2026-04-14 20:14 | 60.49419 | -145.47266 | 46 ft | 2 kts | 123° |
| 2026-04-14 20:15 | 60.49419 | -145.47265 | 46 ft | 0 kts | 123° |
| 2026-04-14 20:16 | 60.49419 | -145.47266 | 48 ft | 0 kts | 126° |
| 2026-04-14 20:16 | 60.49418 | -145.47265 | 46 ft | 0 kts | 126° |
| 2026-04-14 20:17 | 60.49419 | -145.47266 | 46 ft | 0 kts | 123° |
| 2026-04-14 20:18 | 60.49419 | -145.47265 | 46 ft | 0 kts | 124° |